Time;durP1;ratioP1;P1;durP2;ratioP2;P2;SDS_P1;SDS_P2;PMS_P1;PMS_P2;Temp;Humidity;BMP_temperature;BMP_pressure;BME280_temperature;BME280_humidity;BME280_pressure;Samples;Min_cycle;Max_cycle;Signal;HPM_P1;HPM_P2
2024/01/02 00:01:34;;;;;;;6.90;3.78;;;;;;;;;;5082923;28;20105;-71
2024/01/02 00:04:00;;;;;;;9.10;4.25;;;4.30;99.90;;;;;;5082826;28;20354;-70
2024/01/02 00:06:26;;;;;;;10.13;3.53;;;4.70;99.90;;;;;;5082857;28;20024;-71
2024/01/02 00:08:52;;;;;;;9.52;5.30;;;;;;;;;;5083115;28;20020;-71
2024/01/02 00:11:18;;;;;;;8.95;3.22;;;;;;;;;;5082826;28;20034;-70
2024/01/02 00:13:44;;;;;;;8.57;4.70;;;;;;;;;;5082900;28;20534;-71
2024/01/02 00:16:10;;;;;;;6.95;3.53;;;4.30;99.90;;;;;;5082688;28;20066;-71
2024/01/02 00:18:36;;;;;;;6.47;3.10;;;;;;;;;;5081243;28;20036;-71
2024/01/02 00:21:02;;;;;;;5.90;3.10;;;;;;;;;;5064742;28;20103;-71
2024/01/02 00:23:28;;;;;;;6.03;3.28;;;;;;;;;;5082649;28;20091;-70
2024/01/02 00:25:54;;;;;;;14.32;4.50;;;3.90;99.90;;;;;;5082517;28;20044;-71
2024/01/02 00:28:20;;;;;;;5.38;2.58;;;;;;;;;;5082448;28;20028;-70
2024/01/02 00:30:45;;;;;;;7.18;2.60;;;4.20;99.90;;;;;;5082666;28;20078;-70
2024/01/02 00:33:11;;;;;;;5.60;2.53;;;4.20;99.90;;;;;;5082447;28;20021;-71
2024/01/02 00:35:37;;;;;;;3.65;1.98;;;4.00;99.90;;;;;;5082375;28;20046;-70
2024/01/02 00:38:03;;;;;;;3.65;2.08;;;4.10;98.50;;;;;;5082342;28;20090;-70
2024/01/02 00:40:29;;;;;;;4.47;2.17;;;4.10;99.80;;;;;;5082242;28;20025;-70
2024/01/02 00:42:55;;;;;;;3.75;2.25;;;4.30;98.60;;;;;;5082231;28;20267;-70
2024/01/02 00:45:21;;;;;;;6.18;2.15;;;;;;;;;;5082420;28;20020;-70
2024/01/02 00:47:48;;;;;;;16.05;4.75;;;;;;;;;;5082420;28;20040;-70
2024/01/02 00:50:14;;;;;;;6.30;1.98;;;4.30;99.30;;;;;;5082120;28;20021;-70
2024/01/02 00:52:40;;;;;;;12.95;2.90;;;4.40;99.90;;;;;;5081915;28;20070;-70
2024/01/02 00:55:06;;;;;;;5.38;2.30;;;4.60;97.90;;;;;;5081995;28;20024;-70
2024/01/02 00:57:32;;;;;;;3.90;2.08;;;4.90;98.60;;;;;;5070232;28;20216;-70
2024/01/02 00:59:58;;;;;;;4.75;2.28;;;4.60;99.90;;;;;;5082018;28;20025;-70
2024/01/02 01:02:24;;;;;;;3.90;1.90;;;;;;;;;;5063965;28;20047;-70
2024/01/02 01:04:50;;;;;;;4.72;2.47;;;4.70;99.30;;;;;;5081952;28;20016;-70
2024/01/02 01:07:16;;;;;;;6.32;2.00;;;;;;;;;;5083046;28;20151;-70
2024/01/02 01:09:42;;;;;;;5.93;2.15;;;5.00;98.70;;;;;;5082776;28;20021;-71
2024/01/02 01:12:08;;;;;;;4.32;1.45;;;5.00;98.30;;;;;;5082781;28;20058;-71
2024/01/02 01:14:34;;;;;;;6.22;1.90;;;;;;;;;;5064736;28;20312;-70
2024/01/02 01:17:00;;;;;;;3.70;1.60;;;;;;;;;;5081781;28;20017;-70
2024/01/02 01:19:26;;;;;;;3.20;1.58;;;;;;;;;;5081636;28;20028;-71
2024/01/02 01:21:52;;;;;;;4.30;1.35;;;5.60;96.90;;;;;;5081713;28;20032;-71
2024/01/02 01:24:18;;;;;;;5.38;1.40;;;5.30;96.50;;;;;;5081826;28;20024;-70
2024/01/02 01:26:45;;;;;;;3.28;1.23;;;5.50;92.70;;;;;;5081663;28;20036;-70
2024/01/02 01:29:12;;;;;;;2.75;1.20;;;;;;;;;;5081564;28;20602;-70
2024/01/02 01:31:38;;;;;;;6.45;1.77;;;5.40;95.70;;;;;;5081669;28;20017;-71
2024/01/02 01:34:03;;;;;;;5.53;1.52;;;5.50;95.60;;;;;;5081598;28;20020;-70
2024/01/02 01:36:29;;;;;;;8.30;1.50;;;;;;;;;;5081518;28;20028;-70
2024/01/02 01:38:55;;;;;;;2.92;1.42;;;5.50;95.10;;;;;;5081912;28;20027;-71
2024/01/02 01:41:21;;;;;;;2.90;1.25;;;5.40;93.20;;;;;;5082724;28;20032;-70
2024/01/02 01:43:47;;;;;;;2.88;1.23;;;5.40;92.90;;;;;;5082689;28;20332;-70
2024/01/02 01:46:15;;;;;;;2.38;1.25;;;5.40;94.90;;;;;;5081240;28;20232;-69
2024/01/02 01:48:41;;;;;;;4.15;1.70;;;5.30;94.80;;;;;;5081137;28;20412;-69
2024/01/02 01:51:08;;;;;;;5.90;1.50;;;5.40;91.30;;;;;;5080757;28;20287;-70
2024/01/02 01:53:34;;;;;;;5.35;1.58;;;5.30;94.50;;;;;;5069407;28;20063;-70
2024/01/02 01:56:01;;;;;;;3.38;1.92;;;5.40;90.90;;;;;;5067486;28;20091;-70
2024/01/02 01:58:27;;;;;;;8.20;1.33;;;5.30;90.60;;;;;;5080963;28;20067;-70
2024/01/02 02:00:53;;;;;;;7.75;3.08;;;5.50;93.80;;;;;;5074930;28;20025;-70
2024/01/02 02:03:20;;;;;;;8.50;2.35;;;5.50;93.80;;;;;;5074654;28;20193;-70
2024/01/02 02:05:46;;;;;;;5.55;1.63;;;5.80;92.20;;;;;;5080956;28;20020;-71
2024/01/02 02:08:12;;;;;;;2.30;1.10;;;;;;;;;;5062931;28;20024;-70
2024/01/02 02:10:38;;;;;;;2.70;1.42;;;5.20;92.90;;;;;;5080785;28;20029;-70
2024/01/02 02:13:03;;;;;;;7.47;1.48;;;5.30;93.20;;;;;;5081004;28;20024;-70
2024/01/02 02:15:29;;;;;;;5.28;1.85;;;;;;;;;;5080666;28;20062;-71
2024/01/02 02:17:55;;;;;;;3.97;2.20;;;5.10;90.30;;;;;;5062068;28;20041;-70
2024/01/02 02:20:21;;;;;;;3.63;1.83;;;;;;;;;;5060605;28;20029;-70
2024/01/02 02:22:50;;;;;;;3.83;1.60;;;5.70;92.70;;;;;;5060690;28;20036;-72
2024/01/02 02:25:17;;;;;;;3.50;1.50;;;;;;;;;;5060487;28;20104;-70
2024/01/02 02:27:43;;;;;;;8.02;1.63;;;5.50;86.70;;;;;;5069238;28;20028;-70
2024/01/02 02:30:10;;;;;;;3.53;1.13;;;5.50;86.40;;;;;;5080767;28;20066;-70
2024/01/02 02:32:36;;;;;;;4.38;1.42;;;;;;;;;;5080500;28;20078;-70
2024/01/02 02:35:02;;;;;;;8.02;1.63;;;5.50;91.30;;;;;;5080495;28;20065;-70
2024/01/02 02:37:27;;;;;;;2.88;1.45;;;5.50;91.30;;;;;;5062458;28;20056;-70
2024/01/02 02:39:53;;;;;;;5.35;1.60;;;5.60;88.40;;;;;;5062597;28;20029;-70
2024/01/02 02:42:18;;;;;;;6.55;1.35;;;5.80;91.30;;;;;;5064393;28;20032;-69
2024/01/02 02:44:44;;;;;;;7.78;1.08;;;5.80;87.60;;;;;;5084292;28;20083;-69
2024/01/02 02:47:10;;;;;;;2.17;1.48;;;5.80;91.10;;;;;;5084524;28;20024;-69
2024/01/02 02:49:41;;;;;;;2.80;1.40;;;5.70;84.70;;;;;;5084503;28;20029;-69
2024/01/02 02:52:07;;;;;;;4.95;1.40;;;5.60;87.00;;;;;;5084295;28;20109;-70
2024/01/02 02:54:32;;;;;;;6.00;1.40;;;5.60;86.70;;;;;;5084503;28;20017;-70
2024/01/02 02:56:59;;;;;;;3.45;1.20;;;;;;;;;;5084586;28;20032;-70
2024/01/02 02:59:24;;;;;;;3.53;1.40;;;6.10;91.00;;;;;;5084314;28;20036;-70
2024/01/02 03:01:50;;;;;;;7.75;1.30;;;5.60;91.00;;;;;;5084373;28;20043;-70
2024/01/02 03:04:15;;;;;;;7.00;2.55;;;5.40;91.20;;;;;;5084322;28;20551;-70
2024/01/02 03:06:41;;;;;;;4.07;1.30;;;;;;;;;;5084191;28;20036;-70
2024/01/02 03:09:08;;;;;;;6.47;1.38;;;;;;;;;;5084318;28;20020;-70
2024/01/02 03:11:33;;;;;;;5.65;1.27;;;;;;;;;;5084169;28;20023;-70
2024/01/02 03:13:59;;;;;;;5.30;1.20;;;;;;;;;;5084015;28;20024;-70
2024/01/02 03:16:25;;;;;;;7.28;1.63;;;5.20;92.50;;;;;;5084411;28;20305;-70
2024/01/02 03:18:51;;;;;;;2.45;0.98;;;5.20;92.70;;;;;;5084057;28;20029;-70
2024/01/02 03:21:17;;;;;;;4.10;0.95;;;;;;;;;;5083736;28;20035;-70
2024/01/02 03:23:42;;;;;;;4.78;2.35;;;4.90;90.80;;;;;;5083830;28;20028;-70
2024/01/02 03:26:11;;;;;;;3.00;1.13;;;5.10;93.10;;;;;;5084050;28;20024;-70
2024/01/02 03:28:37;;;;;;;2.42;0.82;;;;;;;;;;5083809;28;20352;-70
2024/01/02 03:31:05;;;;;;;6.93;1.00;;;4.80;93.10;;;;;;5083782;28;20048;-70
2024/01/02 03:33:31;;;;;;;2.55;0.93;;;4.70;93.60;;;;;;5083892;28;20020;-70
2024/01/02 03:35:57;;;;;;;2.88;0.85;;;;;;;;;;5083738;28;20244;-71
2024/01/02 03:38:23;;;;;;;1.95;0.80;;;4.60;93.70;;;;;;5083815;28;20051;-70
2024/01/02 03:40:50;;;;;;;3.50;0.90;;;4.80;94.30;;;;;;5083674;28;20396;-71
2024/01/02 03:43:15;;;;;;;5.18;1.17;;;4.50;94.40;;;;;;5083517;28;20028;-70
2024/01/02 03:45:41;;;;;;;3.28;1.27;;;4.80;94.30;;;;;;5083842;28;20260;-71
2024/01/02 03:48:07;;;;;;;3.45;1.40;;;4.90;94.30;;;;;;5083593;28;20073;-71
2024/01/02 03:50:33;;;;;;;2.65;1.00;;;;;;;;;;5083502;28;20029;-70
2024/01/02 03:52:58;;;;;;;5.50;1.17;;;4.60;93.70;;;;;;5083200;28;20166;-71
2024/01/02 03:55:24;;;;;;;3.70;0.95;;;4.60;94.10;;;;;;5083418;28;20111;-71
2024/01/02 03:57:50;;;;;;;2.42;0.80;;;;;;;;;;5083436;28;20036;-70
2024/01/02 04:00:16;;;;;;;2.95;1.00;;;4.50;94.10;;;;;;5065396;28;20213;-70
2024/01/02 04:02:42;;;;;;;9.88;3.47;;;4.60;94.20;;;;;;5083056;28;20036;-71
2024/01/02 04:05:07;;;;;;;7.05;1.40;;;4.50;94.00;;;;;;5082709;28;20474;-70
2024/01/02 04:07:33;;;;;;;2.53;0.80;;;4.20;90.50;;;;;;5083477;28;20033;-71
2024/01/02 04:09:59;;;;;;;3.53;1.95;;;;;;;;;;5083272;28;20317;-70
2024/01/02 04:12:25;;;;;;;9.88;2.90;;;;;;;;;;5083024;28;20051;-70
2024/01/02 04:14:51;;;;;;;5.22;2.45;;;4.10;94.60;;;;;;5083000;28;20020;-71
2024/01/02 04:17:16;;;;;;;5.07;2.50;;;4.10;95.00;;;;;;5082921;28;20020;-70
2024/01/02 04:19:42;;;;;;;5.00;2.20;;;4.30;95.40;;;;;;5083177;28;20027;-70
2024/01/02 04:22:08;;;;;;;5.80;2.15;;;4.10;95.90;;;;;;5082808;28;20116;-71
2024/01/02 04:24:34;;;;;;;6.80;2.30;;;;;;;;;;5064920;28;20032;-71
2024/01/02 04:27:00;;;;;;;3.97;2.33;;;3.90;93.50;;;;;;5082780;28;20035;-71
2024/01/02 04:29:26;;;;;;;5.40;2.20;;;;;;;;;;5082792;28;20031;-70
2024/01/02 04:31:52;;;;;;;5.47;1.63;;;;;;;;;;5074135;28;20024;-70
2024/01/02 04:34:17;;;;;;;2.97;1.65;;;3.80;96.50;;;;;;5067339;28;20025;-72
2024/01/02 04:36:44;;;;;;;3.95;1.98;;;3.90;96.70;;;;;;5061145;28;20229;-70
2024/01/02 04:39:10;;;;;;;3.55;1.83;;;3.90;96.30;;;;;;5062599;28;20078;-70
2024/01/02 04:41:35;;;;;;;4.60;1.83;;;4.10;96.40;;;;;;5064795;28;20041;-70
2024/01/02 04:44:03;;;;;;;4.93;1.40;;;4.20;92.50;;;;;;5068107;28;20127;-73
2024/01/02 04:46:29;;;;;;;6.53;1.98;;;;;;;;;;5084476;28;20028;-73
2024/01/02 04:48:55;;;;;;;9.55;2.33;;;4.20;92.30;;;;;;5065795;28;20033;-72
2024/01/02 04:51:21;;;;;;;6.38;2.28;;;;;;;;;;5064619;28;20071;-73
2024/01/02 04:53:47;;;;;;;4.13;1.70;;;;;;;;;;5065038;28;20028;-73
2024/01/02 04:56:13;;;;;;;2.72;1.40;;;;;;;;;;5082309;28;20036;-73
2024/01/02 04:58:39;;;;;;;5.43;1.73;;;;;;;;;;5083102;28;20035;-74
2024/01/02 05:01:05;;;;;;;4.15;1.60;;;;;;;;;;5078192;28;20032;-73
2024/01/02 05:03:31;;;;;;;6.85;1.80;;;;;;;;;;5062235;28;20041;-73
2024/01/02 05:05:57;;;;;;;2.92;1.58;;;;;;;;;;5043695;28;20036;-73
2024/01/02 05:08:23;;;;;;;2.47;1.58;;;3.70;97.00;;;;;;5065044;28;20032;-74
2024/01/02 05:10:49;;;;;;;5.72;1.40;;;;;;;;;;5065943;28;20333;-74
2024/01/02 05:13:15;;;;;;;6.45;2.10;;;;;;;;;;5062286;28;20225;-73
2024/01/02 05:15:41;;;;;;;3.05;1.58;;;;;;;;;;5062218;28;20032;-73
2024/01/02 05:18:07;;;;;;;4.28;1.73;;;;;;;;;;5062851;28;20075;-74
2024/01/02 05:20:33;;;;;;;5.82;1.60;;;;;;;;;;5061308;28;20025;-73
2024/01/02 05:23:03;;;;;;;1.63;1.27;;;;;;;;;;5061711;28;20075;-73
2024/01/02 05:25:30;;;;;;;2.90;1.83;;;3.60;98.30;;;;;;5061712;28;20088;-73
2024/01/02 05:27:56;;;;;;;4.13;1.70;;;3.60;97.20;;;;;;5060096;28;20033;-73
2024/01/02 05:30:22;;;;;;;3.38;1.27;;;;;;;;;;5059376;28;20321;-73
2024/01/02 05:32:48;;;;;;;5.57;1.90;;;3.60;98.10;;;;;;5060738;28;20255;-74
2024/01/02 05:35:13;;;;;;;3.70;1.52;;;3.40;95.20;;;;;;5060792;28;20032;-74
2024/01/02 05:37:39;;;;;;;3.85;1.60;;;3.80;96.40;;;;;;5060655;28;20347;-73
2024/01/02 05:40:05;;;;;;;5.65;1.83;;;3.50;96.50;;;;;;5060465;28;20017;-73
2024/01/02 05:42:31;;;;;;;3.45;1.60;;;;;;;;;;5061704;28;20033;-73
2024/01/02 05:44:57;;;;;;;2.60;1.88;;;;;;;;;;5061832;28;20012;-74
2024/01/02 05:47:23;;;;;;;7.22;1.80;;;;;;;;;;5061503;28;20039;-73
2024/01/02 05:49:49;;;;;;;6.57;2.58;;;3.50;99.20;;;;;;5043809;28;20017;-73
2024/01/02 05:52:15;;;;;;;3.47;1.70;;;;;;;;;;5061367;28;20142;-73
2024/01/02 05:54:41;;;;;;;2.10;1.42;;;;;;;;;;5061300;28;20399;-74
2024/01/02 05:57:07;;;;;;;4.22;1.73;;;;;;;;;;5061546;28;20029;-73
2024/01/02 05:59:34;;;;;;;3.13;1.35;;;;;;;;;;5044350;28;20321;-74
2024/01/02 06:02:00;;;;;;;6.10;2.25;;;;;;;;;;5062027;28;20147;-74
2024/01/02 06:04:26;;;;;;;7.03;1.73;;;;;;;;;;5069614;28;20030;-73
2024/01/02 06:06:52;;;;;;;4.03;2.00;;;;;;;;;;5082177;28;20075;-74
2024/01/02 06:09:18;;;;;;;6.35;2.58;;;;;;;;;;5081918;28;20337;-74
2024/01/02 06:11:44;;;;;;;4.50;1.95;;;3.40;99.50;;;;;;5081847;28;20046;-74
2024/01/02 06:14:11;;;;;;;7.95;2.35;;;;;;;;;;5080661;28;20024;-74
2024/01/02 06:16:37;;;;;;;3.97;1.45;;;;;;;;;;5079943;28;20025;-73
2024/01/02 06:19:03;;;;;;;5.80;1.60;;;;;;;;;;5081007;28;20052;-74
2024/01/02 06:21:29;;;;;;;6.82;1.40;;;;;;;;;;5081665;28;20066;-74
2024/01/02 06:23:55;;;;;;;16.13;7.43;;;;;;;;;;5081148;28;20362;-72
2024/01/02 06:26:21;;;;;;;22.55;9.25;;;;;;;;;;5080865;28;20550;-71
2024/01/02 06:28:47;;;;;;;21.88;10.18;;;;;;;;;;5080907;28;20044;-71
2024/01/02 06:31:14;;;;;;;22.08;9.70;;;;;;;;;;5080857;28;20059;-72
2024/01/02 06:33:44;;;;;;;13.27;5.65;;;;;;;;;;5081556;28;20031;-74
2024/01/02 06:36:10;;;;;;;15.38;6.30;;;2.80;99.90;;;;;;5084807;28;20261;-74
2024/01/02 06:38:36;;;;;;;10.60;5.28;;;;;;;;;;5084774;28;20020;-73
2024/01/02 06:41:02;;;;;;;14.05;6.38;;;;;;;;;;5083650;28;20321;-73
2024/01/02 06:43:29;;;;;;;16.83;7.25;;;;;;;;;;5083442;28;20247;-73
2024/01/02 06:45:55;;;;;;;8.25;5.40;;;;;;;;;;5083741;28;20348;-73
2024/01/02 06:48:20;;;;;;;7.13;3.83;;;2.90;99.90;;;;;;5082994;28;20073;-73
2024/01/02 06:50:46;;;;;;;6.07;3.42;;;;;;;;;;5083079;28;20067;-73
2024/01/02 06:53:12;;;;;;;4.63;2.40;;;;;;;;;;5081003;28;20063;-73
2024/01/02 06:55:39;;;;;;;6.15;2.28;;;;;;;;;;5079828;28;20411;-73
2024/01/02 06:58:05;;;;;;;5.15;1.80;;;;;;;;;;5080682;28;20100;-73
2024/01/02 07:00:32;;;;;;;7.30;2.60;;;;;;;;;;5080704;28;20186;-73
2024/01/02 07:02:58;;;;;;;4.28;2.28;;;;;;;;;;5080911;28;20067;-73
2024/01/02 07:05:24;;;;;;;3.33;2.00;;;;;;;;;;5080807;28;20060;-73
2024/01/02 07:07:50;;;;;;;6.78;2.60;;;;;;;;;;5081398;28;20032;-73
2024/01/02 07:10:17;;;;;;;2.88;2.15;;;;;;;;;;5080876;28;20297;-74
2024/01/02 07:12:43;;;;;;;7.03;2.38;;;;;;;;;;5080716;28;20028;-73
2024/01/02 07:15:09;;;;;;;6.28;2.50;;;3.50;99.90;;;;;;5080752;28;20052;-73
2024/01/02 07:17:35;;;;;;;6.88;3.13;;;;;;;;;;5080870;28;20050;-74
2024/01/02 07:20:01;;;;;;;30.05;11.20;;;3.70;99.90;;;;;;5080597;28;20021;-74
2024/01/02 07:22:27;;;;;;;13.43;4.85;;;;;;;;;;5080515;28;20049;-74
2024/01/02 07:24:54;;;;;;;22.30;10.02;;;;;;;;;;5080789;28;20020;-74
2024/01/02 07:27:19;;;;;;;28.88;14.57;;;3.90;99.90;;;;;;5080764;28;20028;-74
2024/01/02 07:29:45;;;;;;;28.65;13.88;;;3.70;99.90;;;;;;5085586;28;20022;-75
2024/01/02 07:32:11;;;;;;;18.42;9.23;;;;;;;;;;5085657;28;20216;-74
2024/01/02 07:34:37;;;;;;;15.45;7.80;;;;;;;;;;5085577;28;20017;-74
2024/01/02 07:37:03;;;;;;;12.52;6.00;;;;;;;;;;5067671;28;20032;-73
2024/01/02 07:39:29;;;;;;;9.60;5.85;;;;;;;;;;5067673;28;20078;-74
2024/01/02 07:41:55;;;;;;;13.02;5.00;;;;;;;;;;5085709;28;20032;-74
2024/01/02 07:44:22;;;;;;;8.25;4.32;;;;;;;;;;5068537;28;20119;-74
2024/01/02 07:46:48;;;;;;;8.85;3.78;;;;;;;;;;5066580;28;20020;-73
2024/01/02 07:49:16;;;;;;;5.32;2.88;;;;;;;;;;5083725;28;20077;-73
2024/01/02 07:51:42;;;;;;;6.15;2.30;;;;;;;;;;5065447;28;20058;-73
2024/01/02 07:54:08;;;;;;;6.68;2.88;;;;;;;;;;5083835;28;20025;-73
2024/01/02 07:56:34;;;;;;;7.63;4.35;;;;;;;;;;5083411;28;20031;-73
2024/01/02 07:59:00;;;;;;;5.90;2.53;;;;;;;;;;5083518;28;20028;-72
2024/01/02 08:01:26;;;;;;;6.38;2.72;;;;;;;;;;5083234;28;20360;-73
2024/01/02 08:03:52;;;;;;;5.25;2.80;;;;;;;;;;5083249;28;20039;-73
2024/01/02 08:06:18;;;;;;;5.68;2.78;;;5.00;97.90;;;;;;5065333;28;20012;-73
2024/01/02 08:08:44;;;;;;;6.15;2.70;;;5.20;97.60;;;;;;5083274;28;20070;-72
2024/01/02 08:11:09;;;;;;;5.97;2.60;;;5.40;95.50;;;;;;5083283;28;20025;-73
2024/01/02 08:13:35;;;;;;;4.95;2.83;;;;;;;;;;5065281;28;20048;-72
2024/01/02 08:16:03;;;;;;;4.65;2.80;;;;;;;;;;5083142;28;20051;-72
2024/01/02 08:18:30;;;;;;;7.57;2.40;;;5.50;96.20;;;;;;5065191;28;20138;-72
2024/01/02 08:20:56;;;;;;;4.22;1.88;;;;;;;;;;5083018;28;20036;-73
2024/01/02 08:23:22;;;;;;;3.95;2.00;;;;;;;;;;5083234;28;20036;-71
2024/01/02 08:25:49;;;;;;;5.15;2.00;;;6.00;95.40;;;;;;5082815;28;20018;-71
2024/01/02 08:28:15;;;;;;;6.78;3.03;;;6.20;94.70;;;;;;5064893;28;20035;-72
2024/01/02 08:30:41;;;;;;;11.02;5.18;;;6.20;93.90;;;;;;5065097;28;20028;-72
2024/01/02 08:33:07;;;;;;;9.07;4.70;;;;;;;;;;5082840;28;20062;-72
2024/01/02 08:35:33;;;;;;;8.55;4.97;;;6.60;92.10;;;;;;5082406;28;20028;-73
2024/01/02 08:37:59;;;;;;;9.15;5.50;;;6.80;92.40;;;;;;5064700;28;20020;-73
2024/01/02 08:40:25;;;;;;;12.68;6.38;;;6.70;91.60;;;;;;5076819;28;20083;-73
2024/01/02 08:42:51;;;;;;;8.65;5.82;;;6.80;91.50;;;;;;5065420;28;20040;-74
2024/01/02 08:45:17;;;;;;;10.63;5.22;;;;;;;;;;5049440;28;20016;-74
2024/01/02 08:47:43;;;;;;;7.95;4.30;;;6.90;90.50;;;;;;5083164;28;20043;-73
2024/01/02 08:50:08;;;;;;;9.45;4.90;;;6.80;86.20;;;;;;5082969;28;20016;-73
2024/01/02 08:52:35;;;;;;;8.40;4.03;;;6.80;90.00;;;;;;5082562;28;20055;-72
2024/01/02 08:55:02;;;;;;;7.43;3.47;;;7.20;89.80;;;;;;5077638;28;20028;-73
2024/01/02 08:57:28;;;;;;;3.33;2.55;;;7.20;88.90;;;;;;5080827;28;20051;-72
2024/01/02 08:59:54;;;;;;;8.35;4.82;;;;;;;;;;5083044;28;20066;-72
2024/01/02 09:02:19;;;;;;;6.97;4.20;;;7.70;85.90;;;;;;5082645;28;20033;-73
2024/01/02 09:04:45;;;;;;;6.13;3.60;;;;;;;;;;5082597;28;20045;-73
2024/01/02 09:07:11;;;;;;;6.93;3.40;;;7.70;83.80;;;;;;5082606;28;20024;-73
2024/01/02 09:09:37;;;;;;;10.35;4.78;;;;;;;;;;5082550;28;20013;-73
2024/01/02 09:12:03;;;;;;;8.32;4.72;;;;;;;;;;5082582;28;20215;-73
2024/01/02 09:14:29;;;;;;;10.05;4.95;;;8.40;82.70;;;;;;5080595;28;20058;-73
2024/01/02 09:16:55;;;;;;;10.32;6.28;;;7.70;83.10;;;;;;5076136;28;20020;-73
2024/01/02 09:19:21;;;;;;;8.32;4.88;;;;;;;;;;5062767;28;20095;-73
2024/01/02 09:21:47;;;;;;;6.65;2.90;;;;;;;;;;5071403;28;20028;-72
2024/01/02 09:24:14;;;;;;;4.40;2.40;;;7.60;82.80;;;;;;5082308;28;20085;-73
2024/01/02 09:26:46;;;;;;;4.55;2.78;;;7.70;83.10;;;;;;5082286;28;20051;-73
2024/01/02 09:29:12;;;;;;;5.00;3.17;;;7.80;83.40;;;;;;5082267;28;20028;-73
2024/01/02 09:31:40;;;;;;;6.15;3.22;;;7.30;76.80;;;;;;5062086;28;20064;-72
2024/01/02 09:34:06;;;;;;;4.97;3.50;;;;;;;;;;5071884;28;20032;-71
2024/01/02 09:36:32;;;;;;;7.88;4.43;;;7.30;83.90;;;;;;5081556;28;20098;-72
2024/01/02 09:38:58;;;;;;;10.60;5.63;;;7.20;85.20;;;;;;5074434;28;20041;-72
2024/01/02 09:41:30;;;;;;;8.30;4.82;;;7.20;78.50;;;;;;5061678;28;20090;-72
2024/01/02 09:44:13;;;;;;;9.25;5.90;;;7.40;86.40;;;;;;5043518;28;20032;-71
2024/01/02 09:46:40;;;;;;;8.93;5.32;;;6.90;87.20;;;;;;5060598;28;20021;-73
2024/01/02 09:49:26;;;;;;;7.35;5.28;;;6.70;83.00;;;;;;5060516;28;20023;-72
2024/01/02 09:52:00;;;;;;;6.45;4.05;;;6.80;80.70;;;;;;5061401;28;20065;-72
2024/01/02 09:54:56;;;;;;;6.50;4.50;;;6.60;88.60;;;;;;5060941;28;20164;-72
2024/01/02 09:57:34;;;;;;;7.93;5.00;;;6.70;89.20;;;;;;5061701;28;20031;-74
2024/01/02 10:00:21;;;;;;;7.20;4.43;;;6.60;89.50;;;;;;5060813;28;20070;-73
2024/01/02 10:03:12;;;;;;;6.85;4.78;;;6.70;90.10;;;;;;5059636;28;20319;-72
2024/01/02 10:05:46;;;;;;;13.82;5.53;;;6.60;85.70;;;;;;5061667;28;20037;-69
2024/01/02 10:08:49;;;;;;;12.25;5.68;;;6.50;83.40;;;;;;5061820;28;20040;-70
2024/01/02 10:11:33;;;;;;;7.32;4.75;;;6.30;88.40;;;;;;5076092;28;20047;-69
2024/01/02 10:14:02;;;;;;;11.90;5.20;;;6.70;90.40;;;;;;5060409;28;20037;-70
2024/01/02 10:16:41;;;;;;;7.32;4.78;;;6.60;82.60;;;;;;5060726;28;20056;-70
2024/01/02 10:19:21;;;;;;;6.10;3.38;;;6.40;90.10;;;;;;5043182;28;20017;-70
2024/01/02 10:22:06;;;;;;;5.15;4.00;;;6.80;89.80;;;;;;5060587;28;20071;-70
2024/01/02 10:24:50;;;;;;;5.03;3.63;;;6.50;89.60;;;;;;5059451;28;20571;-70
2024/01/02 10:27:21;;;;;;;5.22;3.85;;;6.60;89.80;;;;;;5060396;28;20020;-69
2024/01/02 10:30:06;;;;;;;5.65;4.15;;;6.80;89.60;;;;;;5060773;28;20340;-70
2024/01/02 10:32:59;;;;;;;4.50;3.22;;;6.90;89.10;;;;;;5060375;28;20021;-69
2024/01/02 10:35:25;;;;;;;16.42;9.00;;;;;;;;;;5059753;28;20020;-70
2024/01/02 10:38:36;;;;;;;4.57;2.83;;;7.20;87.50;;;;;;5059474;28;20052;-70
2024/01/02 10:41:43;;;;;;;5.00;2.97;;;7.10;79.80;;;;;;5059387;28;20096;-70
2024/01/02 10:44:16;;;;;;;7.82;4.50;;;6.90;86.90;;;;;;5038553;28;20045;-73
2024/01/02 10:46:51;;;;;;;5.93;4.25;;;6.90;80.50;;;;;;5060609;28;20029;-73
2024/01/02 10:49:29;;;;;;;5.60;3.65;;;7.30;87.40;;;;;;5060525;28;20298;-73
2024/01/02 10:52:03;;;;;;;7.55;4.20;;;7.30;80.10;;;;;;5060453;28;20056;-73
2024/01/02 10:54:51;;;;;;;4.28;3.20;;;7.20;87.40;;;;;;5059352;28;20261;-73
2024/01/02 10:57:38;;;;;;;6.38;3.60;;;7.50;87.20;;;;;;5060310;28;20063;-73
2024/01/02 11:00:10;;;;;;;5.05;3.45;;;7.50;87.30;;;;;;5059323;28;20087;-72
2024/01/02 11:02:57;;;;;;;3.85;3.10;;;7.70;86.50;;;;;;5059533;28;20048;-71
2024/01/02 11:05:30;;;;;;;6.70;4.47;;;7.80;86.30;;;;;;5063996;28;20028;-71
2024/01/02 11:08:35;;;;;;;5.00;3.05;;;8.20;85.40;;;;;;5046441;28;20048;-71
2024/01/02 11:11:06;;;;;;;5.88;3.47;;;8.20;79.10;;;;;;5069049;28;20375;-70
2024/01/02 11:13:38;;;;;;;5.63;3.70;;;8.20;79.30;;;;;;5066339;28;20024;-71
2024/01/02 11:16:13;;;;;;;4.97;3.17;;;8.40;77.90;;;;;;5084294;28;20056;-71
2024/01/02 11:18:40;;;;;;;4.57;3.17;;;8.40;77.20;;;;;;5084254;28;20024;-71
2024/01/02 11:21:45;;;;;;;5.05;2.90;;;8.30;77.20;;;;;;5049778;28;20066;-72
2024/01/02 11:24:14;;;;;;;3.22;2.63;;;8.20;78.30;;;;;;5080919;28;20044;-71
2024/01/02 11:26:42;;;;;;;4.55;2.90;;;8.20;78.70;;;;;;5084116;28;20340;-71
2024/01/02 11:29:18;;;;;;;3.60;2.88;;;8.30;85.60;;;;;;5084032;28;20025;-71
2024/01/02 11:31:47;;;;;;;7.30;3.13;;;8.30;78.20;;;;;;5083971;28;20021;-72
2024/01/02 11:34:35;;;;;;;5.20;2.53;;;8.70;84.70;;;;;;5083867;28;20016;-71
2024/01/02 11:37:04;;;;;;;4.35;2.83;;;8.40;79.20;;;;;;5062488;28;20032;-73
2024/01/02 11:39:31;;;;;;;5.20;2.97;;;;;;;;;;5063791;28;20021;-72
2024/01/02 11:42:18;;;;;;;4.30;2.85;;;8.50;83.70;;;;;;5063646;28;20052;-72
2024/01/02 11:45:12;;;;;;;3.53;2.70;;;8.40;83.40;;;;;;5063762;28;20367;-72
2024/01/02 11:47:38;;;;;;;5.88;3.10;;;8.40;83.50;;;;;;5045859;28;20052;-72
2024/01/02 11:50:07;;;;;;;4.28;3.42;;;8.40;84.30;;;;;;5045705;28;20020;-73
2024/01/02 11:52:35;;;;;;;6.13;3.17;;;8.00;84.50;;;;;;5075241;28;20060;-72
2024/01/02 11:55:10;;;;;;;4.35;3.25;;;8.20;82.20;;;;;;5083602;28;20016;-71
2024/01/02 11:57:53;;;;;;;7.07;3.65;;;8.00;78.70;;;;;;5083636;28;20514;-71
2024/01/02 12:00:40;;;;;;;3.30;2.63;;;8.40;86.30;;;;;;5063938;28;20332;-70
2024/01/02 12:03:26;;;;;;;6.55;3.60;;;8.00;79.50;;;;;;5063233;28;20078;-70
2024/01/02 12:06:00;;;;;;;5.18;3.70;;;7.70;87.30;;;;;;5063328;28;20017;-69
2024/01/02 12:08:29;;;;;;;5.50;3.90;;;7.80;82.30;;;;;;5063235;28;20024;-69
2024/01/02 12:11:01;;;;;;;6.93;4.15;;;7.50;90.00;;;;;;5065151;28;20039;-69
2024/01/02 12:13:34;;;;;;;4.90;4.32;;;7.50;84.90;;;;;;5082341;28;20098;-69
2024/01/02 12:16:06;;;;;;;5.68;3.92;;;7.40;86.60;;;;;;5082664;28;20184;-69
2024/01/02 12:18:36;;;;;;;5.03;3.90;;;7.50;91.80;;;;;;5081997;28;20024;-70
2024/01/02 12:21:07;;;;;;;6.30;3.70;;;7.30;87.00;;;;;;5083364;28;20050;-71
2024/01/02 12:23:36;;;;;;;4.25;3.42;;;7.30;87.80;;;;;;5084147;28;20318;-72
2024/01/02 12:26:04;;;;;;;7.60;4.28;;;7.40;92.20;;;;;;5083331;28;20031;-71
2024/01/02 12:28:37;;;;;;;10.48;4.00;;;7.40;92.30;;;;;;5083269;28;20032;-73
2024/01/02 12:31:29;;;;;;;5.95;4.05;;;7.30;88.00;;;;;;5079870;28;20036;-70
2024/01/02 12:33:59;;;;;;;5.05;3.53;;;7.30;87.40;;;;;;5063059;28;20013;-69
2024/01/02 12:36:36;;;;;;;7.03;4.45;;;7.30;90.70;;;;;;5063007;28;20083;-70
2024/01/02 12:39:07;;;;;;;9.32;5.30;;;7.30;92.50;;;;;;5044913;28;20025;-70
2024/01/02 12:41:51;;;;;;;14.18;6.65;;;7.30;87.70;;;;;;5062515;28;20021;-69
2024/01/02 12:44:19;;;;;;;15.45;8.25;;;7.10;91.10;;;;;;5062632;28;20343;-71
2024/01/02 12:46:58;;;;;;;16.55;8.18;;;7.10;91.90;;;;;;5067370;28;20054;-69
2024/01/02 12:49:27;;;;;;;7.45;4.13;;;7.50;87.60;;;;;;5069836;28;20028;-69
2024/01/02 12:52:02;;;;;;;3.78;2.65;;;7.10;87.70;;;;;;5081239;28;20256;-70
2024/01/02 12:54:29;;;;;;;10.38;5.18;;;6.90;90.20;;;;;;5063811;28;20020;-69
2024/01/02 12:57:00;;;;;;;7.90;3.65;;;7.10;88.00;;;;;;5081694;28;20020;-69
2024/01/02 12:59:33;;;;;;;3.85;2.40;;;7.30;92.40;;;;;;5064139;28;20021;-70
2024/01/02 13:02:04;;;;;;;3.58;2.90;;;7.40;91.00;;;;;;5065776;28;20142;-70
2024/01/02 13:04:34;;;;;;;7.72;3.38;;;7.00;90.90;;;;;;5062043;28;20029;-70
2024/01/02 13:07:03;;;;;;;4.95;3.17;;;7.00;88.10;;;;;;5076420;28;20092;-70
2024/01/02 13:09:29;;;;;;;6.03;2.93;;;;;;;;;;5082078;28;20111;-70
2024/01/02 13:12:03;;;;;;;6.25;2.88;;;7.20;92.50;;;;;;5081988;28;20253;-70
2024/01/02 13:14:30;;;;;;;4.50;2.55;;;6.90;92.80;;;;;;5063997;28;20020;-70
2024/01/02 13:16:56;;;;;;;3.78;2.70;;;7.00;92.80;;;;;;5081810;28;20035;-70
2024/01/02 13:19:22;;;;;;;3.85;2.72;;;6.90;89.00;;;;;;5082071;28;20313;-70
2024/01/02 13:21:49;;;;;;;4.38;2.88;;;6.90;89.60;;;;;;5081593;28;20033;-70
2024/01/02 13:24:15;;;;;;;4.78;2.83;;;;;;;;;;5081931;28;20052;-70
2024/01/02 13:26:41;;;;;;;5.13;3.03;;;;;;;;;;5081410;28;20142;-70
2024/01/02 13:29:11;;;;;;;4.45;3.20;;;6.80;90.70;;;;;;5081600;28;20062;-69
2024/01/02 13:31:38;;;;;;;5.18;2.88;;;6.80;91.70;;;;;;5081215;28;20027;-69
2024/01/02 13:34:05;;;;;;;6.90;3.72;;;6.80;94.80;;;;;;5063811;28;20066;-70
2024/01/02 13:36:31;;;;;;;6.00;3.10;;;7.30;95.00;;;;;;5063433;28;20043;-70
2024/01/02 13:38:57;;;;;;;4.15;2.40;;;6.80;94.70;;;;;;5069710;28;20192;-70
2024/01/02 13:41:24;;;;;;;4.07;2.65;;;6.90;92.90;;;;;;5061568;28;20309;-70